sensor_id;sensor_type;location;lat;lon;timestamp;P1;durP1;ratioP1;P2;durP2;ratioP2
12654;SDS011;6392;44.644;11.448;2022-12-28T00:00:36;66.50;;;28.23;;
12654;SDS011;6392;44.644;11.448;2022-12-28T00:03:04;58.30;;;25.83;;
12654;SDS011;6392;44.644;11.448;2022-12-28T00:05:31;59.77;;;26.20;;
12654;SDS011;6392;44.644;11.448;2022-12-28T00:07:58;58.57;;;25.33;;
12654;SDS011;6392;44.644;11.448;2022-12-28T00:10:26;68.47;;;26.20;;
12654;SDS011;6392;44.644;11.448;2022-12-28T00:12:53;56.90;;;24.87;;
12654;SDS011;6392;44.644;11.448;2022-12-28T00:15:20;52.13;;;22.87;;
12654;SDS011;6392;44.644;11.448;2022-12-28T00:17:47;58.97;;;26.50;;
12654;SDS011;6392;44.644;11.448;2022-12-28T00:20:14;60.60;;;27.63;;
12654;SDS011;6392;44.644;11.448;2022-12-28T00:22:41;73.10;;;28.77;;
12654;SDS011;6392;44.644;11.448;2022-12-28T00:25:09;64.70;;;26.83;;
12654;SDS011;6392;44.644;11.448;2022-12-28T00:27:37;67.07;;;27.27;;
12654;SDS011;6392;44.644;11.448;2022-12-28T00:30:04;63.10;;;27.73;;
12654;SDS011;6392;44.644;11.448;2022-12-28T00:32:32;62.50;;;25.40;;
12654;SDS011;6392;44.644;11.448;2022-12-28T00:34:59;65.07;;;26.57;;
12654;SDS011;6392;44.644;11.448;2022-12-28T00:37:26;51.20;;;24.60;;
12654;SDS011;6392;44.644;11.448;2022-12-28T00:39:53;56.53;;;25.23;;
12654;SDS011;6392;44.644;11.448;2022-12-28T00:42:20;56.33;;;24.47;;
12654;SDS011;6392;44.644;11.448;2022-12-28T00:44:49;58.60;;;24.80;;
12654;SDS011;6392;44.644;11.448;2022-12-28T00:47:16;52.80;;;23.63;;
12654;SDS011;6392;44.644;11.448;2022-12-28T00:49:43;54.37;;;24.77;;
12654;SDS011;6392;44.644;11.448;2022-12-28T00:52:10;56.53;;;24.87;;
12654;SDS011;6392;44.644;11.448;2022-12-28T00:54:37;58.27;;;23.93;;
12654;SDS011;6392;44.644;11.448;2022-12-28T00:57:04;56.97;;;25.77;;
12654;SDS011;6392;44.644;11.448;2022-12-28T00:59:31;55.73;;;26.03;;
12654;SDS011;6392;44.644;11.448;2022-12-28T01:01:59;57.70;;;23.67;;
12654;SDS011;6392;44.644;11.448;2022-12-28T01:04:26;52.63;;;23.80;;
12654;SDS011;6392;44.644;11.448;2022-12-28T01:06:53;57.40;;;25.50;;
12654;SDS011;6392;44.644;11.448;2022-12-28T01:09:20;65.37;;;23.27;;
12654;SDS011;6392;44.644;11.448;2022-12-28T01:11:47;72.30;;;20.77;;
12654;SDS011;6392;44.644;11.448;2022-12-28T01:14:14;54.67;;;24.83;;
12654;SDS011;6392;44.644;11.448;2022-12-28T01:16:41;63.47;;;25.37;;
12654;SDS011;6392;44.644;11.448;2022-12-28T01:19:10;52.87;;;19.53;;
12654;SDS011;6392;44.644;11.448;2022-12-28T01:21:43;45.37;;;17.20;;
12654;SDS011;6392;44.644;11.448;2022-12-28T01:24:13;50.57;;;18.80;;
12654;SDS011;6392;44.644;11.448;2022-12-28T01:26:40;63.67;;;19.50;;
12654;SDS011;6392;44.644;11.448;2022-12-28T01:29:07;54.77;;;19.07;;
12654;SDS011;6392;44.644;11.448;2022-12-28T01:31:34;40.07;;;17.63;;
12654;SDS011;6392;44.644;11.448;2022-12-28T01:34:01;57.10;;;20.47;;
12654;SDS011;6392;44.644;11.448;2022-12-28T01:36:30;45.73;;;21.00;;
12654;SDS011;6392;44.644;11.448;2022-12-28T01:38:59;60.03;;;22.73;;
12654;SDS011;6392;44.644;11.448;2022-12-28T01:41:29;50.83;;;23.97;;
12654;SDS011;6392;44.644;11.448;2022-12-28T01:47:08;41.70;;;21.00;;
12654;SDS011;6392;44.644;11.448;2022-12-28T01:49:47;47.27;;;21.27;;
12654;SDS011;6392;44.644;11.448;2022-12-28T01:52:21;37.70;;;20.57;;
12654;SDS011;6392;44.644;11.448;2022-12-28T01:54:52;50.60;;;21.27;;
12654;SDS011;6392;44.644;11.448;2022-12-28T01:57:24;52.97;;;22.70;;
12654;SDS011;6392;44.644;11.448;2022-12-28T01:59:54;42.23;;;22.93;;
12654;SDS011;6392;44.644;11.448;2022-12-28T02:02:25;44.17;;;21.80;;
12654;SDS011;6392;44.644;11.448;2022-12-28T02:04:55;49.50;;;22.00;;
12654;SDS011;6392;44.644;11.448;2022-12-28T02:07:28;40.43;;;21.80;;
12654;SDS011;6392;44.644;11.448;2022-12-28T02:10:03;46.93;;;22.40;;
12654;SDS011;6392;44.644;11.448;2022-12-28T02:12:31;41.33;;;21.93;;
12654;SDS011;6392;44.644;11.448;2022-12-28T02:14:59;42.83;;;22.83;;
12654;SDS011;6392;44.644;11.448;2022-12-28T02:17:27;41.60;;;21.63;;
12654;SDS011;6392;44.644;11.448;2022-12-28T02:19:54;41.70;;;22.10;;
12654;SDS011;6392;44.644;11.448;2022-12-28T02:31:39;44.67;;;22.67;;
12654;SDS011;6392;44.644;11.448;2022-12-28T02:34:12;50.33;;;23.13;;
12654;SDS011;6392;44.644;11.448;2022-12-28T02:36:45;53.17;;;22.93;;
12654;SDS011;6392;44.644;11.448;2022-12-28T02:39:17;45.27;;;22.47;;
12654;SDS011;6392;44.644;11.448;2022-12-28T02:41:47;58.47;;;24.00;;
12654;SDS011;6392;44.644;11.448;2022-12-28T02:44:16;46.90;;;21.90;;
12654;SDS011;6392;44.644;11.448;2022-12-28T02:46:57;45.23;;;22.57;;
12654;SDS011;6392;44.644;11.448;2022-12-28T02:49:57;47.23;;;22.53;;
12654;SDS011;6392;44.644;11.448;2022-12-28T02:52:40;45.67;;;21.67;;
12654;SDS011;6392;44.644;11.448;2022-12-28T02:55:23;41.93;;;21.20;;
12654;SDS011;6392;44.644;11.448;2022-12-28T02:58:21;43.53;;;20.77;;
12654;SDS011;6392;44.644;11.448;2022-12-28T03:01:19;42.70;;;21.83;;
12654;SDS011;6392;44.644;11.448;2022-12-28T03:03:57;37.73;;;21.80;;
12654;SDS011;6392;44.644;11.448;2022-12-28T03:06:35;54.53;;;23.27;;
12654;SDS011;6392;44.644;11.448;2022-12-28T03:09:40;46.50;;;21.90;;
12654;SDS011;6392;44.644;11.448;2022-12-28T03:12:15;47.73;;;23.70;;
12654;SDS011;6392;44.644;11.448;2022-12-28T03:14:48;47.73;;;23.00;;
12654;SDS011;6392;44.644;11.448;2022-12-28T03:17:21;51.10;;;23.63;;
12654;SDS011;6392;44.644;11.448;2022-12-28T03:20:24;41.93;;;22.43;;
12654;SDS011;6392;44.644;11.448;2022-12-28T03:23:13;45.60;;;22.53;;
12654;SDS011;6392;44.644;11.448;2022-12-28T03:26:00;52.40;;;21.80;;
12654;SDS011;6392;44.644;11.448;2022-12-28T03:28:47;46.30;;;20.13;;
12654;SDS011;6392;44.644;11.448;2022-12-28T03:31:33;45.07;;;21.77;;
12654;SDS011;6392;44.644;11.448;2022-12-28T03:34:03;43.90;;;21.83;;
12654;SDS011;6392;44.644;11.448;2022-12-28T03:36:36;45.97;;;21.77;;
12654;SDS011;6392;44.644;11.448;2022-12-28T03:39:13;45.50;;;22.10;;
12654;SDS011;6392;44.644;11.448;2022-12-28T03:41:48;40.87;;;21.53;;
12654;SDS011;6392;44.644;11.448;2022-12-28T03:44:37;46.10;;;21.53;;
12654;SDS011;6392;44.644;11.448;2022-12-28T03:47:07;41.23;;;22.17;;
12654;SDS011;6392;44.644;11.448;2022-12-28T03:49:37;49.00;;;22.13;;
12654;SDS011;6392;44.644;11.448;2022-12-28T03:52:05;49.70;;;23.20;;
12654;SDS011;6392;44.644;11.448;2022-12-28T03:54:33;40.20;;;22.17;;
12654;SDS011;6392;44.644;11.448;2022-12-28T03:57:00;40.60;;;21.83;;
12654;SDS011;6392;44.644;11.448;2022-12-28T03:59:27;45.30;;;21.97;;
12654;SDS011;6392;44.644;11.448;2022-12-28T04:01:54;44.33;;;21.73;;
12654;SDS011;6392;44.644;11.448;2022-12-28T04:04:21;50.07;;;23.30;;
12654;SDS011;6392;44.644;11.448;2022-12-28T04:06:50;47.17;;;21.23;;
12654;SDS011;6392;44.644;11.448;2022-12-28T04:09:17;50.27;;;23.03;;
12654;SDS011;6392;44.644;11.448;2022-12-28T04:11:44;50.20;;;23.00;;
12654;SDS011;6392;44.644;11.448;2022-12-28T04:14:11;45.70;;;23.27;;
12654;SDS011;6392;44.644;11.448;2022-12-28T04:16:38;50.10;;;22.70;;
12654;SDS011;6392;44.644;11.448;2022-12-28T04:19:05;40.97;;;21.63;;
12654;SDS011;6392;44.644;11.448;2022-12-28T04:21:32;44.57;;;22.70;;
12654;SDS011;6392;44.644;11.448;2022-12-28T04:24:01;44.70;;;23.03;;
12654;SDS011;6392;44.644;11.448;2022-12-28T04:26:28;45.57;;;24.13;;
12654;SDS011;6392;44.644;11.448;2022-12-28T04:28:55;43.67;;;22.07;;
12654;SDS011;6392;44.644;11.448;2022-12-28T04:31:26;47.67;;;22.50;;
12654;SDS011;6392;44.644;11.448;2022-12-28T04:33:55;51.67;;;22.93;;
12654;SDS011;6392;44.644;11.448;2022-12-28T04:36:22;53.30;;;23.80;;
12654;SDS011;6392;44.644;11.448;2022-12-28T04:38:49;54.57;;;22.70;;
12654;SDS011;6392;44.644;11.448;2022-12-28T04:41:18;49.87;;;24.80;;
12654;SDS011;6392;44.644;11.448;2022-12-28T04:43:45;48.43;;;24.23;;
12654;SDS011;6392;44.644;11.448;2022-12-28T04:46:13;51.50;;;24.70;;
12654;SDS011;6392;44.644;11.448;2022-12-28T04:48:40;54.07;;;24.03;;
12654;SDS011;6392;44.644;11.448;2022-12-28T04:51:08;48.53;;;23.43;;
12654;SDS011;6392;44.644;11.448;2022-12-28T04:53:40;56.57;;;22.63;;
12654;SDS011;6392;44.644;11.448;2022-12-28T04:56:09;59.00;;;21.33;;
12654;SDS011;6392;44.644;11.448;2022-12-28T04:58:38;46.23;;;22.33;;
12654;SDS011;6392;44.644;11.448;2022-12-28T05:01:06;52.97;;;24.33;;
12654;SDS011;6392;44.644;11.448;2022-12-28T05:03:35;49.00;;;23.50;;
12654;SDS011;6392;44.644;11.448;2022-12-28T05:06:03;48.03;;;23.73;;
12654;SDS011;6392;44.644;11.448;2022-12-28T05:08:32;47.90;;;22.80;;
12654;SDS011;6392;44.644;11.448;2022-12-28T05:11:01;52.13;;;22.50;;
12654;SDS011;6392;44.644;11.448;2022-12-28T05:13:30;52.53;;;24.03;;
12654;SDS011;6392;44.644;11.448;2022-12-28T05:16:00;52.63;;;21.77;;
12654;SDS011;6392;44.644;11.448;2022-12-28T05:18:28;54.10;;;23.97;;
12654;SDS011;6392;44.644;11.448;2022-12-28T05:20:57;49.50;;;22.17;;
12654;SDS011;6392;44.644;11.448;2022-12-28T05:23:26;59.70;;;22.70;;
12654;SDS011;6392;44.644;11.448;2022-12-28T05:25:54;53.03;;;23.13;;
12654;SDS011;6392;44.644;11.448;2022-12-28T05:28:21;57.33;;;25.10;;
12654;SDS011;6392;44.644;11.448;2022-12-28T05:30:48;64.73;;;24.13;;
12654;SDS011;6392;44.644;11.448;2022-12-28T05:33:17;59.63;;;25.03;;
12654;SDS011;6392;44.644;11.448;2022-12-28T05:35:44;63.07;;;24.80;;
12654;SDS011;6392;44.644;11.448;2022-12-28T05:38:12;55.20;;;23.93;;
12654;SDS011;6392;44.644;11.448;2022-12-28T05:40:39;57.03;;;24.93;;
12654;SDS011;6392;44.644;11.448;2022-12-28T05:43:05;60.33;;;24.20;;
12654;SDS011;6392;44.644;11.448;2022-12-28T05:45:32;71.70;;;23.60;;
12654;SDS011;6392;44.644;11.448;2022-12-28T05:47:59;59.27;;;24.30;;
12654;SDS011;6392;44.644;11.448;2022-12-28T05:50:28;66.00;;;20.93;;
12654;SDS011;6392;44.644;11.448;2022-12-28T05:52:55;44.67;;;22.07;;
12654;SDS011;6392;44.644;11.448;2022-12-28T05:55:23;60.27;;;21.70;;
12654;SDS011;6392;44.644;11.448;2022-12-28T05:57:50;56.63;;;20.70;;
12654;SDS011;6392;44.644;11.448;2022-12-28T06:00:20;59.70;;;21.07;;
12654;SDS011;6392;44.644;11.448;2022-12-28T06:02:47;48.10;;;20.43;;
12654;SDS011;6392;44.644;11.448;2022-12-28T06:05:14;53.83;;;21.03;;
12654;SDS011;6392;44.644;11.448;2022-12-28T06:07:42;48.63;;;20.23;;
12654;SDS011;6392;44.644;11.448;2022-12-28T06:10:09;58.77;;;18.67;;
12654;SDS011;6392;44.644;11.448;2022-12-28T06:12:36;78.57;;;19.13;;
12654;SDS011;6392;44.644;11.448;2022-12-28T06:15:04;54.97;;;21.43;;
12654;SDS011;6392;44.644;11.448;2022-12-28T06:17:31;53.43;;;19.80;;
12654;SDS011;6392;44.644;11.448;2022-12-28T06:19:58;70.13;;;19.57;;
12654;SDS011;6392;44.644;11.448;2022-12-28T06:22:26;52.37;;;21.07;;
12654;SDS011;6392;44.644;11.448;2022-12-28T06:24:54;47.10;;;20.77;;
12654;SDS011;6392;44.644;11.448;2022-12-28T06:27:21;61.73;;;20.63;;
12654;SDS011;6392;44.644;11.448;2022-12-28T06:29:48;90.03;;;20.20;;
12654;SDS011;6392;44.644;11.448;2022-12-28T06:32:15;56.13;;;21.37;;
12654;SDS011;6392;44.644;11.448;2022-12-28T06:34:42;56.73;;;21.47;;
12654;SDS011;6392;44.644;11.448;2022-12-28T06:37:09;54.70;;;21.67;;
12654;SDS011;6392;44.644;11.448;2022-12-28T06:39:36;47.20;;;22.47;;
12654;SDS011;6392;44.644;11.448;2022-12-28T06:42:04;58.03;;;22.00;;
12654;SDS011;6392;44.644;11.448;2022-12-28T06:44:31;67.73;;;22.73;;
12654;SDS011;6392;44.644;11.448;2022-12-28T06:46:58;56.57;;;21.83;;
12654;SDS011;6392;44.644;11.448;2022-12-28T06:49:26;49.80;;;21.70;;
12654;SDS011;6392;44.644;11.448;2022-12-28T06:51:53;46.80;;;22.70;;
12654;SDS011;6392;44.644;11.448;2022-12-28T06:54:20;60.77;;;20.23;;
12654;SDS011;6392;44.644;11.448;2022-12-28T06:56:47;54.77;;;22.33;;
12654;SDS011;6392;44.644;11.448;2022-12-28T06:59:16;45.63;;;22.17;;
12654;SDS011;6392;44.644;11.448;2022-12-28T07:01:43;52.93;;;21.17;;
12654;SDS011;6392;44.644;11.448;2022-12-28T07:04:10;64.87;;;21.37;;
12654;SDS011;6392;44.644;11.448;2022-12-28T07:06:38;47.97;;;21.53;;
12654;SDS011;6392;44.644;11.448;2022-12-28T07:09:07;46.67;;;21.47;;
12654;SDS011;6392;44.644;11.448;2022-12-28T07:11:37;58.20;;;22.73;;
12654;SDS011;6392;44.644;11.448;2022-12-28T07:14:04;57.10;;;24.00;;
12654;SDS011;6392;44.644;11.448;2022-12-28T07:16:33;63.93;;;23.43;;
12654;SDS011;6392;44.644;11.448;2022-12-28T07:19:00;51.63;;;21.90;;
12654;SDS011;6392;44.644;11.448;2022-12-28T07:21:30;61.53;;;26.17;;
12654;SDS011;6392;44.644;11.448;2022-12-28T07:23:58;73.90;;;25.07;;
12654;SDS011;6392;44.644;11.448;2022-12-28T07:26:27;90.50;;;29.70;;
12654;SDS011;6392;44.644;11.448;2022-12-28T07:28:55;104.87;;;31.53;;
12654;SDS011;6392;44.644;11.448;2022-12-28T07:31:24;112.70;;;31.67;;
12654;SDS011;6392;44.644;11.448;2022-12-28T07:33:54;115.03;;;34.47;;
12654;SDS011;6392;44.644;11.448;2022-12-28T07:36:23;100.43;;;32.60;;
12654;SDS011;6392;44.644;11.448;2022-12-28T07:38:51;117.83;;;34.43;;
12654;SDS011;6392;44.644;11.448;2022-12-28T07:41:19;119.63;;;32.20;;
12654;SDS011;6392;44.644;11.448;2022-12-28T07:43:47;111.47;;;33.03;;
12654;SDS011;6392;44.644;11.448;2022-12-28T07:46:16;134.77;;;34.67;;
12654;SDS011;6392;44.644;11.448;2022-12-28T07:48:44;125.40;;;31.37;;
12654;SDS011;6392;44.644;11.448;2022-12-28T07:51:14;102.50;;;32.20;;
12654;SDS011;6392;44.644;11.448;2022-12-28T07:53:44;121.47;;;31.57;;
12654;SDS011;6392;44.644;11.448;2022-12-28T07:56:13;106.30;;;32.33;;
12654;SDS011;6392;44.644;11.448;2022-12-28T07:58:41;103.47;;;31.40;;
12654;SDS011;6392;44.644;11.448;2022-12-28T08:01:13;89.37;;;32.60;;
12654;SDS011;6392;44.644;11.448;2022-12-28T08:03:41;94.70;;;32.43;;
12654;SDS011;6392;44.644;11.448;2022-12-28T08:06:09;94.97;;;30.80;;
12654;SDS011;6392;44.644;11.448;2022-12-28T08:08:38;80.10;;;31.80;;
12654;SDS011;6392;44.644;11.448;2022-12-28T08:11:07;76.87;;;30.00;;
12654;SDS011;6392;44.644;11.448;2022-12-28T08:13:37;99.07;;;30.13;;
12654;SDS011;6392;44.644;11.448;2022-12-28T08:16:06;86.73;;;30.83;;
12654;SDS011;6392;44.644;11.448;2022-12-28T08:18:34;95.63;;;31.90;;
12654;SDS011;6392;44.644;11.448;2022-12-28T08:21:02;74.90;;;31.33;;
12654;SDS011;6392;44.644;11.448;2022-12-28T08:23:30;78.67;;;28.57;;
12654;SDS011;6392;44.644;11.448;2022-12-28T08:26:04;89.80;;;31.07;;
12654;SDS011;6392;44.644;11.448;2022-12-28T08:28:33;86.00;;;28.93;;
12654;SDS011;6392;44.644;11.448;2022-12-28T08:31:04;78.53;;;29.03;;
12654;SDS011;6392;44.644;11.448;2022-12-28T08:33:32;89.37;;;27.87;;
12654;SDS011;6392;44.644;11.448;2022-12-28T08:35:59;66.33;;;27.67;;
12654;SDS011;6392;44.644;11.448;2022-12-28T08:38:26;67.57;;;27.70;;
12654;SDS011;6392;44.644;11.448;2022-12-28T08:40:53;75.77;;;27.90;;
12654;SDS011;6392;44.644;11.448;2022-12-28T08:43:22;72.90;;;27.73;;
12654;SDS011;6392;44.644;11.448;2022-12-28T08:45:56;64.37;;;26.70;;
12654;SDS011;6392;44.644;11.448;2022-12-28T08:48:23;73.53;;;26.43;;
12654;SDS011;6392;44.644;11.448;2022-12-28T08:50:51;62.40;;;26.77;;
12654;SDS011;6392;44.644;11.448;2022-12-28T08:53:18;61.17;;;27.43;;
12654;SDS011;6392;44.644;11.448;2022-12-28T08:55:48;54.83;;;24.47;;
12654;SDS011;6392;44.644;11.448;2022-12-28T08:58:15;52.17;;;23.60;;
12654;SDS011;6392;44.644;11.448;2022-12-28T09:00:44;52.33;;;24.10;;
12654;SDS011;6392;44.644;11.448;2022-12-28T09:03:11;54.20;;;25.87;;
12654;SDS011;6392;44.644;11.448;2022-12-28T09:05:38;53.80;;;24.83;;
12654;SDS011;6392;44.644;11.448;2022-12-28T09:08:05;53.63;;;23.27;;
12654;SDS011;6392;44.644;11.448;2022-12-28T09:10:32;52.97;;;26.33;;
12654;SDS011;6392;44.644;11.448;2022-12-28T09:12:59;55.97;;;24.27;;
12654;SDS011;6392;44.644;11.448;2022-12-28T09:15:26;53.03;;;23.93;;
12654;SDS011;6392;44.644;11.448;2022-12-28T09:17:54;58.87;;;25.20;;
12654;SDS011;6392;44.644;11.448;2022-12-28T09:20:21;57.20;;;24.77;;
12654;SDS011;6392;44.644;11.448;2022-12-28T09:22:48;58.93;;;24.17;;
12654;SDS011;6392;44.644;11.448;2022-12-28T09:25:15;50.97;;;22.90;;
12654;SDS011;6392;44.644;11.448;2022-12-28T09:27:43;49.03;;;22.87;;
12654;SDS011;6392;44.644;11.448;2022-12-28T09:30:13;54.33;;;24.67;;
12654;SDS011;6392;44.644;11.448;2022-12-28T09:32:41;43.63;;;20.90;;
12654;SDS011;6392;44.644;11.448;2022-12-28T09:35:09;49.10;;;22.20;;
12654;SDS011;6392;44.644;11.448;2022-12-28T09:37:36;48.60;;;22.60;;
12654;SDS011;6392;44.644;11.448;2022-12-28T09:40:03;51.20;;;22.57;;
12654;SDS011;6392;44.644;11.448;2022-12-28T09:42:31;62.73;;;26.33;;
12654;SDS011;6392;44.644;11.448;2022-12-28T09:45:04;58.47;;;25.80;;
12654;SDS011;6392;44.644;11.448;2022-12-28T09:47:35;58.33;;;23.87;;
12654;SDS011;6392;44.644;11.448;2022-12-28T09:53:02;58.63;;;24.50;;
12654;SDS011;6392;44.644;11.448;2022-12-28T09:55:47;60.33;;;23.70;;
12654;SDS011;6392;44.644;11.448;2022-12-28T09:58:19;63.40;;;25.17;;
12654;SDS011;6392;44.644;11.448;2022-12-28T10:00:47;65.53;;;25.03;;
12654;SDS011;6392;44.644;11.448;2022-12-28T10:03:18;69.87;;;25.80;;
12654;SDS011;6392;44.644;11.448;2022-12-28T10:05:49;74.33;;;25.73;;
12654;SDS011;6392;44.644;11.448;2022-12-28T10:08:19;75.87;;;27.50;;
12654;SDS011;6392;44.644;11.448;2022-12-28T10:10:48;70.73;;;26.83;;
12654;SDS011;6392;44.644;11.448;2022-12-28T10:13:18;73.07;;;28.63;;
12654;SDS011;6392;44.644;11.448;2022-12-28T10:15:47;97.87;;;33.00;;
12654;SDS011;6392;44.644;11.448;2022-12-28T10:18:16;88.43;;;30.23;;
12654;SDS011;6392;44.644;11.448;2022-12-28T10:20:47;94.60;;;32.77;;
12654;SDS011;6392;44.644;11.448;2022-12-28T10:23:17;75.00;;;29.47;;
12654;SDS011;6392;44.644;11.448;2022-12-28T10:25:48;87.47;;;30.53;;
12654;SDS011;6392;44.644;11.448;2022-12-28T10:28:17;98.20;;;32.17;;
12654;SDS011;6392;44.644;11.448;2022-12-28T10:30:46;93.33;;;30.00;;
12654;SDS011;6392;44.644;11.448;2022-12-28T10:33:27;98.80;;;31.97;;
12654;SDS011;6392;44.644;11.448;2022-12-28T10:35:56;102.47;;;34.00;;
12654;SDS011;6392;44.644;11.448;2022-12-28T10:38:25;97.57;;;34.10;;
12654;SDS011;6392;44.644;11.448;2022-12-28T10:40:55;113.83;;;35.47;;
12654;SDS011;6392;44.644;11.448;2022-12-28T10:43:26;108.40;;;37.40;;
12654;SDS011;6392;44.644;11.448;2022-12-28T10:45:55;94.33;;;32.70;;
12654;SDS011;6392;44.644;11.448;2022-12-28T10:48:24;90.13;;;33.77;;
12654;SDS011;6392;44.644;11.448;2022-12-28T10:50:54;108.73;;;35.23;;
12654;SDS011;6392;44.644;11.448;2022-12-28T10:53:25;95.73;;;33.30;;
12654;SDS011;6392;44.644;11.448;2022-12-28T10:56:01;100.27;;;36.70;;
12654;SDS011;6392;44.644;11.448;2022-12-28T10:58:40;97.33;;;34.00;;
12654;SDS011;6392;44.644;11.448;2022-12-28T11:01:14;111.80;;;37.53;;
12654;SDS011;6392;44.644;11.448;2022-12-28T11:03:43;111.50;;;36.93;;
12654;SDS011;6392;44.644;11.448;2022-12-28T11:06:24;112.60;;;38.60;;
12654;SDS011;6392;44.644;11.448;2022-12-28T11:09:00;105.20;;;37.53;;
12654;SDS011;6392;44.644;11.448;2022-12-28T11:11:30;117.17;;;36.73;;
12654;SDS011;6392;44.644;11.448;2022-12-28T11:13:57;110.17;;;37.70;;
12654;SDS011;6392;44.644;11.448;2022-12-28T11:16:28;99.77;;;37.00;;
12654;SDS011;6392;44.644;11.448;2022-12-28T11:18:57;109.10;;;37.73;;
12654;SDS011;6392;44.644;11.448;2022-12-28T11:21:26;103.40;;;36.03;;
12654;SDS011;6392;44.644;11.448;2022-12-28T11:23:53;93.73;;;34.20;;
12654;SDS011;6392;44.644;11.448;2022-12-28T11:26:20;113.30;;;37.87;;
12654;SDS011;6392;44.644;11.448;2022-12-28T11:28:48;101.23;;;36.57;;
12654;SDS011;6392;44.644;11.448;2022-12-28T11:31:20;110.17;;;37.27;;
12654;SDS011;6392;44.644;11.448;2022-12-28T11:33:51;117.70;;;37.60;;
12654;SDS011;6392;44.644;11.448;2022-12-28T11:36:22;100.77;;;35.23;;
12654;SDS011;6392;44.644;11.448;2022-12-28T11:38:52;90.80;;;35.67;;
12654;SDS011;6392;44.644;11.448;2022-12-28T11:41:41;107.73;;;37.00;;
12654;SDS011;6392;44.644;11.448;2022-12-28T11:44:21;102.27;;;35.47;;
12654;SDS011;6392;44.644;11.448;2022-12-28T11:46:57;104.90;;;36.13;;
12654;SDS011;6392;44.644;11.448;2022-12-28T11:49:32;103.40;;;36.23;;
12654;SDS011;6392;44.644;11.448;2022-12-28T11:55:34;106.27;;;36.53;;
12654;SDS011;6392;44.644;11.448;2022-12-28T12:01:09;95.57;;;36.03;;
12654;SDS011;6392;44.644;11.448;2022-12-28T12:12:56;98.50;;;35.20;;
12654;SDS011;6392;44.644;11.448;2022-12-28T12:15:26;94.20;;;35.93;;
12654;SDS011;6392;44.644;11.448;2022-12-28T12:18:00;94.23;;;36.17;;
12654;SDS011;6392;44.644;11.448;2022-12-28T12:20:41;90.13;;;37.60;;
12654;SDS011;6392;44.644;11.448;2022-12-28T12:23:23;87.20;;;36.33;;
12654;SDS011;6392;44.644;11.448;2022-12-28T12:25:56;91.63;;;37.67;;
12654;SDS011;6392;44.644;11.448;2022-12-28T12:28:30;91.00;;;37.37;;
12654;SDS011;6392;44.644;11.448;2022-12-28T12:31:01;95.03;;;38.20;;
12654;SDS011;6392;44.644;11.448;2022-12-28T12:33:33;88.27;;;37.17;;
12654;SDS011;6392;44.644;11.448;2022-12-28T12:36:04;87.70;;;35.53;;
12654;SDS011;6392;44.644;11.448;2022-12-28T12:38:54;85.93;;;36.20;;
12654;SDS011;6392;44.644;11.448;2022-12-28T12:41:36;85.17;;;36.87;;
12654;SDS011;6392;44.644;11.448;2022-12-28T12:44:18;85.10;;;36.03;;
12654;SDS011;6392;44.644;11.448;2022-12-28T12:47:04;78.30;;;34.67;;
12654;SDS011;6392;44.644;11.448;2022-12-28T12:49:59;75.23;;;31.87;;
12654;SDS011;6392;44.644;11.448;2022-12-28T12:52:32;79.97;;;33.13;;
12654;SDS011;6392;44.644;11.448;2022-12-28T12:55:11;74.50;;;33.00;;
12654;SDS011;6392;44.644;11.448;2022-12-28T12:57:49;70.20;;;31.93;;
12654;SDS011;6392;44.644;11.448;2022-12-28T13:00:23;78.37;;;32.27;;
12654;SDS011;6392;44.644;11.448;2022-12-28T13:03:03;69.27;;;30.90;;
12654;SDS011;6392;44.644;11.448;2022-12-28T13:05:41;65.20;;;29.73;;
12654;SDS011;6392;44.644;11.448;2022-12-28T13:08:14;73.43;;;32.33;;
12654;SDS011;6392;44.644;11.448;2022-12-28T13:10:47;71.53;;;30.57;;
12654;SDS011;6392;44.644;11.448;2022-12-28T13:13:17;63.00;;;30.43;;
12654;SDS011;6392;44.644;11.448;2022-12-28T13:15:54;66.23;;;30.97;;
12654;SDS011;6392;44.644;11.448;2022-12-28T13:18:26;61.73;;;29.13;;
12654;SDS011;6392;44.644;11.448;2022-12-28T13:20:54;66.53;;;29.90;;
12654;SDS011;6392;44.644;11.448;2022-12-28T13:23:23;70.27;;;29.73;;
12654;SDS011;6392;44.644;11.448;2022-12-28T13:25:51;62.70;;;29.37;;
12654;SDS011;6392;44.644;11.448;2022-12-28T13:28:21;62.40;;;27.87;;
12654;SDS011;6392;44.644;11.448;2022-12-28T13:31:02;77.60;;;30.57;;
12654;SDS011;6392;44.644;11.448;2022-12-28T13:33:33;67.00;;;28.83;;
12654;SDS011;6392;44.644;11.448;2022-12-28T13:36:04;66.30;;;29.47;;
12654;SDS011;6392;44.644;11.448;2022-12-28T13:38:37;55.60;;;28.93;;
12654;SDS011;6392;44.644;11.448;2022-12-28T13:41:04;61.77;;;30.00;;
12654;SDS011;6392;44.644;11.448;2022-12-28T13:46:51;65.30;;;29.47;;
12654;SDS011;6392;44.644;11.448;2022-12-28T13:49:23;63.53;;;29.60;;
12654;SDS011;6392;44.644;11.448;2022-12-28T13:51:52;67.23;;;28.90;;
12654;SDS011;6392;44.644;11.448;2022-12-28T13:54:20;66.17;;;29.30;;
12654;SDS011;6392;44.644;11.448;2022-12-28T13:56:49;62.57;;;28.57;;
12654;SDS011;6392;44.644;11.448;2022-12-28T13:59:18;67.37;;;30.50;;
12654;SDS011;6392;44.644;11.448;2022-12-28T14:01:46;61.00;;;29.53;;
12654;SDS011;6392;44.644;11.448;2022-12-28T14:04:17;56.73;;;28.83;;
12654;SDS011;6392;44.644;11.448;2022-12-28T14:06:47;62.97;;;28.70;;
12654;SDS011;6392;44.644;11.448;2022-12-28T14:09:16;60.73;;;27.83;;
12654;SDS011;6392;44.644;11.448;2022-12-28T14:11:44;58.17;;;27.43;;
12654;SDS011;6392;44.644;11.448;2022-12-28T14:14:13;63.50;;;29.57;;
12654;SDS011;6392;44.644;11.448;2022-12-28T14:16:41;60.47;;;27.07;;
12654;SDS011;6392;44.644;11.448;2022-12-28T14:19:09;55.80;;;26.77;;
12654;SDS011;6392;44.644;11.448;2022-12-28T14:21:40;56.67;;;26.20;;
12654;SDS011;6392;44.644;11.448;2022-12-28T14:24:09;60.87;;;27.80;;
12654;SDS011;6392;44.644;11.448;2022-12-28T14:26:39;59.97;;;27.27;;
12654;SDS011;6392;44.644;11.448;2022-12-28T14:29:11;53.80;;;26.37;;
12654;SDS011;6392;44.644;11.448;2022-12-28T14:31:43;60.33;;;25.97;;
12654;SDS011;6392;44.644;11.448;2022-12-28T14:34:19;63.90;;;27.97;;
12654;SDS011;6392;44.644;11.448;2022-12-28T14:36:50;64.40;;;28.43;;
12654;SDS011;6392;44.644;11.448;2022-12-28T14:39:25;56.97;;;27.30;;
12654;SDS011;6392;44.644;11.448;2022-12-28T14:41:54;58.40;;;27.00;;
12654;SDS011;6392;44.644;11.448;2022-12-28T14:44:27;59.00;;;25.13;;
12654;SDS011;6392;44.644;11.448;2022-12-28T14:46:57;60.77;;;26.57;;
12654;SDS011;6392;44.644;11.448;2022-12-28T14:49:31;54.50;;;25.93;;
12654;SDS011;6392;44.644;11.448;2022-12-28T14:55:21;53.80;;;25.47;;
12654;SDS011;6392;44.644;11.448;2022-12-28T14:57:56;56.93;;;26.33;;
12654;SDS011;6392;44.644;11.448;2022-12-28T15:00:26;57.53;;;27.50;;
12654;SDS011;6392;44.644;11.448;2022-12-28T15:02:55;50.60;;;25.27;;
12654;SDS011;6392;44.644;11.448;2022-12-28T15:05:33;58.70;;;26.70;;
12654;SDS011;6392;44.644;11.448;2022-12-28T15:08:03;51.93;;;24.40;;
12654;SDS011;6392;44.644;11.448;2022-12-28T15:10:31;57.67;;;26.83;;
12654;SDS011;6392;44.644;11.448;2022-12-28T15:13:01;54.80;;;25.80;;
12654;SDS011;6392;44.644;11.448;2022-12-28T15:15:29;55.03;;;26.70;;
12654;SDS011;6392;44.644;11.448;2022-12-28T15:17:56;56.27;;;24.57;;